Time;durP1;ratioP1;P1;durP2;ratioP2;P2;SDS_P1;SDS_P2;PMS_P1;PMS_P2;Temp;Humidity;BMP_temperature;BMP_pressure;BME280_temperature;BME280_humidity;BME280_pressure;Samples;Min_cycle;Max_cycle;Signal;HPM_P1;HPM_P2
2023/01/18 00:00:39;;;;;;;9.33;5.63;;;-0.30;94.60;;;;;;4838544;29;20046;-80
2023/01/18 00:03:07;;;;;;;9.63;5.67;;;-0.30;94.60;;;;;;4836123;29;20046;-79
2023/01/18 00:05:33;;;;;;;10.10;5.38;;;-0.40;94.60;;;;;;4835214;29;20042;-86
2023/01/18 00:07:59;;;;;;;9.93;5.00;;;-0.40;94.60;;;;;;4829346;29;20053;-84
2023/01/18 00:10:25;;;;;;;9.03;5.03;;;-0.40;94.60;;;;;;4835159;29;20110;-82
2023/01/18 00:12:50;;;;;;;10.63;5.73;;;-0.30;94.70;;;;;;4833982;29;20052;-84
2023/01/18 00:15:16;;;;;;;9.63;5.73;;;-0.30;94.60;;;;;;4836753;29;20767;-86
2023/01/18 00:17:50;;;;;;;8.70;5.47;;;-0.30;94.60;;;;;;4833923;29;20244;-80
2023/01/18 00:20:18;;;;;;;12.73;6.07;;;-0.30;94.60;;;;;;4834731;29;20046;-84
2023/01/18 00:22:43;;;;;;;9.07;5.80;;;-0.30;94.60;;;;;;4835642;29;20502;-86
2023/01/18 00:25:10;;;;;;;10.97;6.80;;;-0.30;94.80;;;;;;4834922;29;20082;-84
2023/01/18 00:27:39;;;;;;;9.70;5.77;;;-0.40;94.60;;;;;;4832264;29;20068;-85
2023/01/18 00:30:07;;;;;;;8.30;5.80;;;-0.40;94.70;;;;;;4827510;29;20042;-84
2023/01/18 00:32:33;;;;;;;8.80;6.40;;;-0.40;94.80;;;;;;4827550;29;20058;-83
2023/01/18 00:34:59;;;;;;;8.07;6.50;;;-0.50;94.80;;;;;;4828141;29;20054;-83
2023/01/18 00:37:28;;;;;;;12.30;7.33;;;-0.50;94.80;;;;;;4829013;29;20607;-82
2023/01/18 00:39:53;;;;;;;;;;;-0.50;94.90;;;;;;4827457;29;20042;-81
2023/01/18 00:45:03;;;;;;;9.83;6.40;;;-0.60;95.00;;;;;;4827900;29;20054;-84
2023/01/18 00:47:29;;;;;;;13.90;8.07;;;-0.60;95.00;;;;;;4828326;29;20043;-80
2023/01/18 00:49:55;;;;;;;8.87;7.10;;;-0.70;95.10;;;;;;4828761;29;20053;-83
2023/01/18 00:52:20;;;;;;;9.47;6.50;;;-0.70;95.20;;;;;;4831311;29;20048;-85
2023/01/18 00:54:46;;;;;;;11.53;6.57;;;-0.70;95.30;;;;;;4833604;29;20444;-83
2023/01/18 00:57:12;;;;;;;13.87;6.60;;;-0.70;95.30;;;;;;4834262;29;20049;-83
2023/01/18 00:59:38;;;;;;;11.43;6.70;;;-0.80;95.40;;;;;;4836263;29;20030;-84
2023/01/18 01:02:03;;;;;;;10.93;7.17;;;-0.70;95.40;;;;;;4834449;29;20056;-83
2023/01/18 01:07:13;;;;;;;12.90;6.77;;;-0.80;95.40;;;;;;4828530;29;20141;-80
2023/01/18 01:09:39;;;;;;;11.07;6.93;;;-0.80;95.40;;;;;;4832270;29;20533;-83
2023/01/18 01:26:07;;;;;;;10.93;6.70;;;-0.80;95.60;;;;;;4832287;29;20053;-82
2023/01/18 01:28:43;;;;;;;10.07;7.60;;;-0.80;95.60;;;;;;4829648;29;20038;-85
2023/01/18 01:31:12;;;;;;;10.77;7.33;;;-0.80;95.60;;;;;;4825170;29;20058;-85
2023/01/18 01:33:39;;;;;;;12.80;7.18;;;-0.80;95.60;;;;;;4829139;29;20053;-86
2023/01/18 01:36:08;;;;;;;14.27;7.33;;;-0.80;95.70;;;;;;4826738;29;20061;-82
2023/01/18 01:38:34;;;;;;;10.37;7.20;;;-0.80;95.70;;;;;;4827407;29;20052;-82
2023/01/18 01:41:00;;;;;;;9.57;6.87;;;-0.80;95.70;;;;;;4826384;29;20038;-76
2023/01/18 01:43:50;;;;;;;10.17;8.07;;;-0.90;95.60;;;;;;4828629;29;20050;-83
2023/01/18 01:46:27;;;;;;;11.23;7.83;;;-0.80;95.60;;;;;;4825942;29;20050;-85
2023/01/18 01:49:01;;;;;;;10.90;7.80;;;-0.80;95.60;;;;;;4827250;29;20054;-84
2023/01/18 01:51:27;;;;;;;11.50;7.70;;;-0.80;95.60;;;;;;4826386;29;20042;-84
2023/01/18 01:53:54;;;;;;;14.23;7.20;;;-0.80;95.60;;;;;;4829901;29;20092;-84
2023/01/18 01:56:21;;;;;;;13.77;7.30;;;-0.90;95.50;;;;;;4828443;29;20050;-84
2023/01/18 01:58:50;;;;;;;12.50;7.33;;;-0.90;95.60;;;;;;4827573;29;20407;-85
2023/01/18 02:01:16;;;;;;;10.57;7.60;;;-0.90;95.70;;;;;;4829162;29;20151;-83
2023/01/18 02:03:41;;;;;;;11.93;8.23;;;-0.80;95.70;;;;;;4830015;29;20077;-79
2023/01/18 02:06:31;;;;;;;12.70;7.43;;;-0.80;95.70;;;;;;4809045;29;20050;-81
2023/01/18 02:09:15;;;;;;;16.00;7.53;;;-0.80;95.70;;;;;;4833504;29;20136;-85
2023/01/18 02:11:41;;;;;;;13.07;7.97;;;-0.70;95.60;;;;;;4833244;29;20511;-86
2023/01/18 02:14:10;;;;;;;13.80;8.53;;;-0.70;95.60;;;;;;4831008;29;20383;-84
2023/01/18 02:16:38;;;;;;;12.05;8.18;;;-0.70;95.50;;;;;;4834905;29;20060;-85
2023/01/18 02:19:21;;;;;;;12.10;8.05;;;-0.70;95.50;;;;;;4831258;29;20053;-80
2023/01/18 02:21:58;;;;;;;15.67;8.60;;;-0.70;95.60;;;;;;4832800;29;20096;-80
2023/01/18 02:24:55;;;;;;;12.30;8.00;;;-0.80;95.50;;;;;;4831593;29;20038;-82
2023/01/18 02:27:54;;;;;;;15.33;8.43;;;-0.80;95.60;;;;;;4831666;29;20510;-79
2023/01/18 02:30:31;;;;;;;11.87;8.43;;;-0.80;95.50;;;;;;4829003;29;20081;-80
2023/01/18 02:33:12;;;;;;;14.10;8.80;;;-0.80;95.60;;;;;;4826981;29;20058;-80
2023/01/18 02:35:53;;;;;;;11.70;8.57;;;-0.80;95.60;;;;;;4826238;29;20046;-83
2023/01/18 02:38:40;;;;;;;12.93;9.23;;;-0.80;95.70;;;;;;4827640;29;20050;-82
2023/01/18 02:47:25;;;;;;;15.23;8.87;;;-0.80;95.70;;;;;;4789927;29;20054;-83
2023/01/18 02:49:50;;;;;;;14.80;9.03;;;-0.70;95.70;;;;;;4802663;29;20073;-84
2023/01/18 02:52:40;;;;;;;13.87;8.97;;;-0.70;95.70;;;;;;4828569;29;20049;-85
2023/01/18 02:55:11;;;;;;;13.97;8.67;;;-0.70;95.70;;;;;;4828020;29;20056;-83
2023/01/18 02:57:37;;;;;;;17.17;8.67;;;-0.70;95.60;;;;;;4828221;29;20114;-85
2023/01/18 03:00:05;;;;;;;14.10;9.27;;;-0.70;95.70;;;;;;4827408;29;20826;-83
2023/01/18 03:02:30;;;;;;;13.57;8.57;;;-0.80;95.60;;;;;;4826621;29;20038;-82
2023/01/18 03:04:56;;;;;;;13.63;8.73;;;-0.70;95.70;;;;;;4827410;29;20153;-82
2023/01/18 03:07:52;;;;;;;12.97;8.77;;;-0.70;95.60;;;;;;4825610;29;20060;-84
2023/01/18 03:10:18;;;;;;;15.13;8.97;;;-0.60;95.60;;;;;;4827170;29;20089;-83
2023/01/18 03:12:47;;;;;;;21.00;9.43;;;-0.60;95.50;;;;;;4827487;29;20129;-84
2023/01/18 03:15:51;;;;;;;15.50;8.77;;;-0.60;95.40;;;;;;4824822;29;20046;-84
2023/01/18 03:18:26;;;;;;;14.03;9.17;;;-0.70;95.40;;;;;;4827545;29;20639;-80
2023/01/18 03:20:54;;;;;;;13.17;9.07;;;-0.70;95.30;;;;;;4826177;29;20054;-82
2023/01/18 03:23:36;;;;;;;14.65;9.05;;;-0.70;95.40;;;;;;4826321;29;20853;-83
2023/01/18 03:26:04;;;;;;;17.83;9.50;;;-0.80;95.40;;;;;;4829207;29;20098;-84
2023/01/18 03:34:36;;;;;;;16.47;9.30;;;-0.80;95.50;;;;;;4829304;29;20058;-83
2023/01/18 03:37:05;;;;;;;11.85;9.13;;;-0.80;95.50;;;;;;4829983;29;20050;-83
2023/01/18 03:39:46;;;;;;;14.40;9.33;;;-0.80;95.50;;;;;;4828762;29;20081;-82
2023/01/18 03:42:18;;;;;;;15.37;9.40;;;-0.80;95.50;;;;;;4830371;29;20762;-83
2023/01/18 03:44:50;;;;;;;14.93;10.30;;;-0.80;95.40;;;;;;4832739;29;20065;-82
2023/01/18 03:47:16;;;;;;;20.97;11.10;;;-0.80;95.50;;;;;;4829602;29;20049;-80
2023/01/18 03:49:41;;;;;;;18.37;10.80;;;-0.90;95.50;;;;;;4831169;29;20037;-84
2023/01/18 03:52:15;;;;;;;15.87;11.33;;;-0.90;95.50;;;;;;4829680;29;21132;-83
2023/01/18 03:55:04;;;;;;;18.10;11.73;;;-0.90;95.50;;;;;;4830268;29;20061;-82
2023/01/18 03:57:41;;;;;;;21.80;12.10;;;-1.00;96.00;;;;;;4829377;29;20046;-80
2023/01/18 04:00:08;;;;;;;25.50;12.17;;;-1.00;95.60;;;;;;4829005;29;20045;-82
2023/01/18 04:02:35;;;;;;;20.07;12.00;;;-1.00;95.70;;;;;;4829280;29;20129;-82
2023/01/18 04:05:02;;;;;;;18.30;11.77;;;-1.10;95.70;;;;;;4829534;29;20046;-82
2023/01/18 04:07:31;;;;;;;17.70;12.50;;;-1.00;95.80;;;;;;4839908;29;20073;-83
2023/01/18 04:09:58;;;;;;;20.27;12.23;;;-1.00;95.70;;;;;;4827771;29;20467;-84
2023/01/18 04:12:24;;;;;;;17.23;11.57;;;-0.90;95.70;;;;;;4829827;29;20038;-84
2023/01/18 04:14:50;;;;;;;19.60;12.27;;;-1.00;95.70;;;;;;4828988;29;20053;-84
2023/01/18 04:17:16;;;;;;;14.53;11.63;;;-1.00;95.70;;;;;;4829954;29;20609;-79
2023/01/18 04:19:42;;;;;;;18.63;11.27;;;-1.00;95.70;;;;;;4828751;29;20049;-83
2023/01/18 04:22:08;;;;;;;18.13;11.80;;;-1.00;95.70;;;;;;4829943;29;20050;-82
2023/01/18 04:24:34;;;;;;;17.80;11.07;;;-1.00;95.60;;;;;;4829618;29;20050;-84
2023/01/18 04:27:00;;;;;;;14.70;11.03;;;-1.00;95.70;;;;;;4828505;29;20046;-84
2023/01/18 04:29:26;;;;;;;14.90;11.33;;;-1.00;95.70;;;;;;4827731;29;20050;-82
2023/01/18 04:31:52;;;;;;;17.50;12.23;;;-1.00;95.70;;;;;;4829641;29;20133;-80
2023/01/18 04:34:18;;;;;;;18.63;11.20;;;-1.00;95.70;;;;;;4828424;29;20105;-82
2023/01/18 04:36:44;;;;;;;18.20;12.60;;;-1.00;95.60;;;;;;4830789;29;20430;-84
2023/01/18 04:39:13;;;;;;;18.67;11.50;;;-1.00;95.70;;;;;;4828792;29;20050;-83
2023/01/18 04:41:38;;;;;;;16.25;10.85;;;-1.00;95.70;;;;;;4829078;29;20133;-81
2023/01/18 04:44:04;;;;;;;21.60;11.40;;;-1.00;95.70;;;;;;4833436;29;20141;-84
2023/01/18 04:46:30;;;;;;;19.77;11.77;;;-1.00;95.70;;;;;;4832788;29;20054;-82
2023/01/18 04:48:55;;;;;;;19.63;12.40;;;-1.10;95.70;;;;;;4835095;29;20042;-84
2023/01/18 04:51:22;;;;;;;17.93;11.60;;;-1.10;95.60;;;;;;4834044;29;20050;-82
2023/01/18 04:53:48;;;;;;;16.07;11.50;;;-1.10;95.60;;;;;;4843874;29;20045;-82
2023/01/18 04:56:15;;;;;;;17.83;11.60;;;-1.10;95.60;;;;;;4834588;29;20054;-83
2023/01/18 04:58:41;;;;;;;18.47;11.80;;;-1.10;95.60;;;;;;4819083;29;20081;-83
2023/01/18 05:01:10;;;;;;;16.50;11.20;;;-1.10;95.70;;;;;;4833367;29;20145;-83
2023/01/18 05:03:37;;;;;;;16.63;11.43;;;-1.10;95.70;;;;;;4833670;29;20046;-84
2023/01/18 05:06:08;;;;;;;16.27;10.73;;;-1.10;95.60;;;;;;4834725;29;20474;-84
2023/01/18 05:08:33;;;;;;;18.17;10.93;;;-1.10;95.70;;;;;;4833728;29;20041;-83
2023/01/18 05:11:04;;;;;;;19.70;11.77;;;-1.10;95.70;;;;;;4830835;29;20053;-81
2023/01/18 05:13:30;;;;;;;16.47;10.93;;;-1.10;95.70;;;;;;4830321;29;20053;-84
2023/01/18 05:15:57;;;;;;;16.33;10.93;;;-1.10;95.70;;;;;;4831694;29;20061;-83
2023/01/18 05:18:23;;;;;;;18.37;11.97;;;-1.20;95.60;;;;;;4828086;29;20049;-84
2023/01/18 05:20:49;;;;;;;17.57;11.67;;;-1.20;95.70;;;;;;4827947;29;20034;-84
2023/01/18 05:23:14;;;;;;;15.67;11.30;;;-1.10;95.80;;;;;;4827892;29;20523;-80
2023/01/18 05:25:40;;;;;;;19.07;12.03;;;-1.10;95.80;;;;;;4809143;29;20064;-82
2023/01/18 05:28:06;;;;;;;19.83;12.47;;;-1.20;95.80;;;;;;4829948;29;20332;-85
2023/01/18 05:30:33;;;;;;;20.80;12.67;;;-1.20;95.80;;;;;;4827254;29;20054;-82
2023/01/18 05:33:01;;;;;;;17.50;11.80;;;-1.20;95.70;;;;;;4831533;29;20061;-84
2023/01/18 05:35:26;;;;;;;25.13;12.77;;;-1.20;95.80;;;;;;4828231;29;20575;-85
2023/01/18 05:37:52;;;;;;;21.47;12.13;;;-1.20;95.90;;;;;;4828051;29;20136;-83
2023/01/18 05:40:19;;;;;;;16.07;12.47;;;-1.20;95.90;;;;;;4825285;29;20049;-85
2023/01/18 05:42:44;;;;;;;17.57;13.17;;;-1.20;95.90;;;;;;4829449;29;20045;-82
2023/01/18 05:45:10;;;;;;;20.27;13.90;;;-1.20;95.90;;;;;;4827398;29;20088;-83
2023/01/18 05:47:36;;;;;;;21.90;13.03;;;-1.20;95.80;;;;;;4822122;29;20607;-85
2023/01/18 05:50:01;;;;;;;17.30;12.97;;;-1.20;95.80;;;;;;4827283;29;20053;-84
2023/01/18 05:52:27;;;;;;;20.57;12.97;;;-1.20;95.90;;;;;;4828607;29;20045;-82
2023/01/18 05:54:52;;;;;;;22.13;13.47;;;-1.20;96.20;;;;;;4832859;29;20567;-82
2023/01/18 05:57:18;;;;;;;17.23;13.50;;;-1.20;96.00;;;;;;4812951;29;20050;-85
2023/01/18 05:59:43;;;;;;;17.57;13.57;;;-1.30;95.90;;;;;;4813094;29;20053;-81
2023/01/18 06:02:09;;;;;;;18.93;12.80;;;-1.30;96.00;;;;;;4826731;29;20048;-83
2023/01/18 06:04:35;;;;;;;19.40;13.00;;;-1.30;96.00;;;;;;4819788;29;20156;-84
2023/01/18 06:07:00;;;;;;;19.17;13.13;;;-1.20;96.10;;;;;;4832444;29;20838;-82
2023/01/18 06:09:28;;;;;;;22.30;13.63;;;-1.20;96.10;;;;;;4832498;29;20046;-81
2023/01/18 06:11:54;;;;;;;19.83;12.77;;;-1.20;96.10;;;;;;4828716;29;20037;-84
2023/01/18 06:14:20;;;;;;;16.80;12.03;;;-1.20;96.00;;;;;;4833475;29;20294;-85
2023/01/18 06:16:45;;;;;;;19.30;13.07;;;-1.20;96.00;;;;;;4833847;29;20080;-82
2023/01/18 06:19:11;;;;;;;18.63;13.20;;;-1.20;96.10;;;;;;4831879;29;20098;-85
2023/01/18 06:21:36;;;;;;;21.40;13.23;;;-1.10;96.10;;;;;;4832080;29;20042;-80
2023/01/18 06:24:02;;;;;;;16.43;12.53;;;-1.10;96.00;;;;;;4833046;29;20499;-85
2023/01/18 06:26:30;;;;;;;16.47;12.07;;;-1.10;96.00;;;;;;4832115;29;20049;-83
2023/01/18 06:28:56;;;;;;;20.27;12.33;;;-1.10;95.90;;;;;;4816944;29;20110;-85
2023/01/18 06:31:23;;;;;;;20.87;12.80;;;-1.00;95.90;;;;;;4831716;29;20422;-84
2023/01/18 06:33:48;;;;;;;22.57;13.20;;;-1.00;95.80;;;;;;4827338;29;20419;-83
2023/01/18 06:36:14;;;;;;;20.03;12.70;;;-1.00;95.80;;;;;;4826758;29;20054;-79
2023/01/18 06:38:40;;;;;;;20.13;12.47;;;-1.10;95.80;;;;;;4826627;29;20042;-84
2023/01/18 06:41:06;;;;;;;19.40;12.63;;;-1.00;95.80;;;;;;4796706;29;20068;-82
2023/01/18 06:43:32;;;;;;;19.50;12.43;;;-1.00;95.80;;;;;;4827202;29;20327;-82
2023/01/18 06:45:58;;;;;;;18.70;11.97;;;-1.00;95.70;;;;;;4825146;29;20699;-79
2023/01/18 06:48:25;;;;;;;20.93;11.63;;;-1.00;95.70;;;;;;4827122;29;20823;-83
2023/01/18 06:50:51;;;;;;;22.13;10.60;;;-1.00;95.60;;;;;;4808770;29;20073;-84
2023/01/18 06:53:19;;;;;;;15.03;10.57;;;-0.90;95.60;;;;;;4810928;29;20054;-84
2023/01/18 06:55:55;;;;;;;15.37;11.00;;;-0.90;95.50;;;;;;4827731;29;20050;-83
2023/01/18 06:58:21;;;;;;;16.00;10.60;;;-0.90;95.50;;;;;;4816329;29;20050;-84
2023/01/18 07:00:47;;;;;;;17.00;10.20;;;-0.90;95.40;;;;;;4824299;29;20046;-83
2023/01/18 07:03:12;;;;;;;18.40;10.60;;;-0.80;95.40;;;;;;4827119;29;20042;-82
2023/01/18 07:05:38;;;;;;;16.27;10.67;;;-0.80;95.30;;;;;;4825964;29;20044;-79
2023/01/18 07:08:04;;;;;;;17.10;10.43;;;-0.70;95.20;;;;;;4825918;29;20054;-85
2023/01/18 07:10:29;;;;;;;18.57;10.90;;;-0.70;95.20;;;;;;4811986;29;20080;-83
2023/01/18 07:12:55;;;;;;;17.43;10.33;;;-0.70;95.10;;;;;;4826262;29;20528;-83
2023/01/18 07:15:20;;;;;;;16.10;9.87;;;-0.70;95.10;;;;;;4824857;29;20117;-82
2023/01/18 07:17:46;;;;;;;15.70;9.43;;;-0.70;95.00;;;;;;4829267;29;20046;-83
2023/01/18 07:20:14;;;;;;;15.43;9.87;;;-0.70;95.00;;;;;;4822898;29;20132;-81
2023/01/18 07:22:40;;;;;;;15.73;10.07;;;-0.70;95.00;;;;;;4829520;29;20086;-85
2023/01/18 07:25:06;;;;;;;17.07;10.03;;;-0.70;95.00;;;;;;4825630;29;20535;-84
2023/01/18 07:27:32;;;;;;;16.17;9.87;;;-0.80;95.00;;;;;;4823963;29;20149;-82
2023/01/18 07:29:57;;;;;;;14.20;9.27;;;-0.80;95.00;;;;;;4825402;29;20125;-84
2023/01/18 07:32:23;;;;;;;17.73;9.93;;;-0.70;95.00;;;;;;4825257;29;20103;-85
2023/01/18 07:34:49;;;;;;;17.63;10.80;;;-0.70;95.00;;;;;;4821816;29;20260;-83
2023/01/18 07:37:15;;;;;;;17.70;9.53;;;-0.70;95.00;;;;;;4818211;29;20479;-80
2023/01/18 07:39:40;;;;;;;16.43;9.80;;;-0.70;95.00;;;;;;4810386;29;20041;-83
2023/01/18 07:42:06;;;;;;;20.33;9.90;;;-0.70;95.30;;;;;;4825913;29;20598;-82
2023/01/18 07:44:31;;;;;;;17.10;9.50;;;-0.70;94.80;;;;;;4824112;29;20218;-80
2023/01/18 07:46:57;;;;;;;14.73;10.23;;;-0.70;94.80;;;;;;4825723;29;20128;-78
2023/01/18 07:49:23;;;;;;;17.23;10.20;;;-0.70;94.80;;;;;;4825555;29;20053;-80
2023/01/18 07:51:48;;;;;;;16.70;10.47;;;-0.70;94.80;;;;;;4826263;29;21105;-79
2023/01/18 07:54:16;;;;;;;17.53;9.97;;;-0.70;94.80;;;;;;4826031;29;20042;-83
2023/01/18 07:56:41;;;;;;;17.50;10.13;;;-0.70;94.70;;;;;;4825768;29;20064;-80
2023/01/18 07:59:07;;;;;;;13.47;9.67;;;-0.70;94.80;;;;;;4826450;29;20042;-82
2023/01/18 08:01:32;;;;;;;17.80;10.20;;;-0.70;94.70;;;;;;4822541;29;20048;-80
2023/01/18 08:03:58;;;;;;;17.70;9.77;;;-0.70;94.70;;;;;;4824354;29;20418;-82
2023/01/18 08:06:26;;;;;;;16.17;10.10;;;-0.60;94.70;;;;;;4825505;29;20620;-83
2023/01/18 08:08:53;;;;;;;12.57;9.33;;;-0.60;94.70;;;;;;4826485;29;20069;-76
2023/01/18 08:11:19;;;;;;;15.33;8.97;;;-0.60;94.60;;;;;;4823865;29;20892;-79
2023/01/18 08:13:45;;;;;;;17.33;10.07;;;-0.60;94.60;;;;;;4827230;29;20045;-78
2023/01/18 08:16:11;;;;;;;19.27;10.20;;;-0.50;94.60;;;;;;4828972;29;20486;-77
2023/01/18 08:18:38;;;;;;;15.73;9.57;;;-0.50;94.40;;;;;;4828966;29;20049;-78
2023/01/18 08:21:04;;;;;;;16.70;10.30;;;-0.50;94.50;;;;;;4812112;29;20038;-80
2023/01/18 08:23:30;;;;;;;15.57;9.50;;;-0.50;94.50;;;;;;4811073;29;20551;-83
2023/01/18 08:26:00;;;;;;;17.07;10.00;;;-0.50;94.50;;;;;;4825099;29;20046;-82
2023/01/18 08:28:26;;;;;;;19.27;10.43;;;-0.50;94.50;;;;;;4826528;29;20145;-82
2023/01/18 08:30:52;;;;;;;16.27;9.93;;;-0.50;94.40;;;;;;4831084;29;20058;-81
2023/01/18 08:33:17;;;;;;;18.43;10.87;;;-0.50;94.40;;;;;;4829857;29;20100;-82
2023/01/18 08:35:45;;;;;;;20.60;10.67;;;-0.50;94.50;;;;;;4827879;29;20046;-83
2023/01/18 08:38:13;;;;;;;18.67;11.10;;;-0.50;94.50;;;;;;4826788;29;20506;-84
2023/01/18 08:40:39;;;;;;;19.47;10.07;;;-0.50;94.50;;;;;;4829796;29;20041;-80
2023/01/18 08:43:05;;;;;;;18.97;11.23;;;-0.50;94.40;;;;;;4828811;29;20124;-79
2023/01/18 08:45:33;;;;;;;16.23;11.13;;;-0.50;94.50;;;;;;4828551;29;20030;-84
2023/01/18 08:48:01;;;;;;;15.57;10.18;;;-0.40;94.40;;;;;;4830452;29;20054;-81
2023/01/18 08:50:29;;;;;;;16.55;10.48;;;-0.40;94.40;;;;;;4828955;29;20164;-81
2023/01/18 08:52:55;;;;;;;17.07;10.70;;;-0.30;94.40;;;;;;4823848;29;20103;-81
2023/01/18 08:55:21;;;;;;;16.27;10.50;;;-0.20;94.20;;;;;;4829498;29;20046;-79
2023/01/18 08:57:48;;;;;;;17.73;10.50;;;-0.10;94.10;;;;;;4829915;29;20704;-78
2023/01/18 09:00:16;;;;;;;15.47;10.60;;;-0.10;94.20;;;;;;4827878;29;20507;-81
2023/01/18 09:02:41;;;;;;;18.30;10.57;;;-0.10;94.10;;;;;;4826524;29;20623;-80
2023/01/18 09:05:07;;;;;;;19.73;11.50;;;0.00;94.00;;;;;;4829809;29;20045;-81
2023/01/18 09:07:33;;;;;;;17.90;11.43;;;0.00;93.90;;;;;;4827512;29;20057;-81
2023/01/18 09:09:59;;;;;;;17.33;11.10;;;0.00;93.90;;;;;;4830147;29;20053;-82
2023/01/18 09:12:25;;;;;;;17.67;10.53;;;0.10;93.90;;;;;;4826676;29;20578;-81
2023/01/18 09:14:50;;;;;;;15.60;11.03;;;0.10;93.90;;;;;;4838310;29;20066;-80
2023/01/18 09:17:20;;;;;;;18.33;10.47;;;0.20;93.80;;;;;;4829492;29;20041;-83
2023/01/18 09:19:45;;;;;;;18.90;10.90;;;0.20;93.80;;;;;;4827853;29;20066;-83
2023/01/18 09:22:11;;;;;;;19.17;10.87;;;0.30;93.60;;;;;;4828965;29;20042;-81
2023/01/18 09:24:37;;;;;;;16.93;10.60;;;0.30;93.60;;;;;;4828978;29;20132;-77
2023/01/18 09:27:06;;;;;;;20.80;11.07;;;0.30;93.50;;;;;;4843327;29;20045;-77
2023/01/18 09:29:31;;;;;;;19.80;11.43;;;0.40;93.40;;;;;;4827271;29;20050;-80
2023/01/18 09:31:58;;;;;;;20.80;11.73;;;0.40;93.40;;;;;;4828577;29;20114;-80
2023/01/18 09:34:24;;;;;;;18.57;10.83;;;0.40;93.50;;;;;;4824662;29;20050;-83
2023/01/18 09:36:51;;;;;;;16.27;11.30;;;0.50;93.30;;;;;;4814534;29;20085;-77
2023/01/18 09:39:19;;;;;;;16.50;11.10;;;0.60;93.40;;;;;;4828482;29;20113;-77
2023/01/18 09:42:00;;;;;;;15.50;11.00;;;0.60;93.30;;;;;;4827128;29;20052;-78
2023/01/18 09:44:40;;;;;;;15.90;10.80;;;0.70;93.10;;;;;;4824568;29;20056;-82
2023/01/18 09:47:16;;;;;;;15.17;11.00;;;0.80;93.00;;;;;;4830541;29;20046;-81
2023/01/18 09:50:12;;;;;;;17.03;10.70;;;0.90;92.60;;;;;;4828819;29;21032;-78
2023/01/18 09:52:41;;;;;;;15.83;11.07;;;0.90;92.50;;;;;;4827218;29;20117;-80
2023/01/18 09:55:32;;;;;;;15.23;10.27;;;1.00;92.60;;;;;;4828549;29;20520;-81
2023/01/18 09:58:33;;;;;;;16.43;10.07;;;1.10;92.40;;;;;;4823228;29;20049;-79
2023/01/18 10:01:22;;;;;;;16.33;10.23;;;1.20;92.00;;;;;;4825753;29;20038;-81
2023/01/18 10:04:19;;;;;;;13.77;10.43;;;1.30;92.30;;;;;;4833685;29;20400;-80
2023/01/18 10:07:00;;;;;;;16.57;10.67;;;1.30;91.60;;;;;;4825434;29;20065;-80
2023/01/18 10:09:37;;;;;;;17.80;10.77;;;1.40;91.80;;;;;;4830726;29;20096;-79
2023/01/18 10:12:07;;;;;;;15.27;10.30;;;1.50;91.90;;;;;;4826825;29;20050;-79
2023/01/18 10:14:45;;;;;;;13.73;10.23;;;1.50;91.90;;;;;;4832858;29;20053;-80
2023/01/18 10:17:17;;;;;;;18.70;9.93;;;1.60;91.80;;;;;;4833224;29;20053;-79
2023/01/18 10:19:44;;;;;;;14.20;10.57;;;1.70;91.70;;;;;;4824807;29;20201;-77
2023/01/18 10:22:33;;;;;;;48.33;11.70;;;1.70;91.70;;;;;;4829652;29;20050;-79
2023/01/18 10:25:32;;;;;;;14.83;10.53;;;1.80;91.70;;;;;;4823788;29;20051;-79
2023/01/18 10:27:57;;;;;;;15.00;9.40;;;1.90;91.70;;;;;;4823950;29;20054;-78
2023/01/18 10:30:31;;;;;;;14.50;10.20;;;1.90;91.60;;;;;;4822060;29;20045;-79
2023/01/18 10:33:13;;;;;;;13.23;9.37;;;2.10;91.40;;;;;;4830897;29;20058;-76
2023/01/18 10:35:44;;;;;;;14.77;9.47;;;2.10;91.20;;;;;;4825784;29;20080;-75
2023/01/18 10:38:14;;;;;;;15.00;9.40;;;2.20;91.00;;;;;;4830776;29;20054;-80
2023/01/18 10:40:53;;;;;;;12.43;9.00;;;2.30;91.00;;;;;;4821776;29;20050;-80
2023/01/18 10:43:22;;;;;;;13.70;9.37;;;2.30;90.80;;;;;;4825377;29;20079;-80
2023/01/18 10:45:47;;;;;;;13.10;9.38;;;2.30;90.80;;;;;;4828550;29;20050;-79
2023/01/18 10:48:16;;;;;;;13.87;8.87;;;2.40;90.80;;;;;;4826767;29;20056;-79
2023/01/18 10:50:45;;;;;;;14.05;9.05;;;2.50;91.10;;;;;;4815841;29;20042;-79
2023/01/18 10:53:28;;;;;;;17.33;8.13;;;2.60;90.70;;;;;;4827361;29;20114;-78
2023/01/18 10:55:55;;;;;;;12.33;8.73;;;2.70;90.50;;;;;;4810402;29;20591;-81
2023/01/18 10:58:50;;;;;;;13.90;8.23;;;2.70;90.60;;;;;;4825600;29;20054;-81
2023/01/18 11:01:22;;;;;;;14.33;9.30;;;2.80;90.20;;;;;;4819368;29;20438;-83
2023/01/18 11:03:53;;;;;;;11.70;8.80;;;2.90;90.50;;;;;;4827520;29;20084;-77
2023/01/18 11:06:20;;;;;;;13.43;7.50;;;2.90;90.00;;;;;;4824905;29;20181;-80
2023/01/18 11:08:47;;;;;;;12.40;8.13;;;3.00;89.60;;;;;;4827557;29;20061;-82
2023/01/18 11:12:32;;;;;;;14.87;9.03;;;3.00;89.20;;;;;;4829270;29;20053;-83
2023/01/18 11:14:29;;;;;;;16.30;8.67;;;3.00;89.80;;;;;;4816632;29;20046;-78
2023/01/18 11:17:09;;;;;;;15.80;8.23;;;3.10;89.40;;;;;;4824540;29;20033;-76
2023/01/18 11:19:36;;;;;;;13.33;8.20;;;3.20;89.20;;;;;;4824816;29;20074;-75
2023/01/18 11:22:09;;;;;;;13.17;8.07;;;3.20;89.10;;;;;;4808522;29;20127;-80
2023/01/18 11:24:36;;;;;;;12.10;7.93;;;3.30;89.20;;;;;;4822304;29;20046;-74
2023/01/18 11:27:13;;;;;;;16.30;8.10;;;3.30;87.80;;;;;;4820679;29;20929;-76
2023/01/18 11:29:44;;;;;;;11.03;7.63;;;3.30;87.60;;;;;;4826130;29;20049;-77
2023/01/18 11:32:26;;;;;;;11.70;7.97;;;3.40;88.40;;;;;;4824528;29;20054;-76
2023/01/18 11:34:54;;;;;;;10.73;7.07;;;3.40;88.00;;;;;;4833342;29;20467;-81
2023/01/18 11:37:38;;;;;;;11.15;7.38;;;3.50;86.80;;;;;;4832973;29;20299;-79
2023/01/18 11:40:19;;;;;;;13.33;7.47;;;3.50;87.80;;;;;;4824679;29;20038;-80
2023/01/18 11:42:46;;;;;;;11.20;7.10;;;3.60;87.60;;;;;;4805204;29;20061;-82
2023/01/18 11:45:40;;;;;;;12.63;6.95;;;3.70;87.50;;;;;;4805945;29;20056;-80
2023/01/18 11:48:31;;;;;;;12.93;6.77;;;3.70;87.60;;;;;;4825956;29;20058;-83
2023/01/18 11:51:14;;;;;;;11.33;7.60;;;3.80;86.80;;;;;;4825074;29;20116;-86
2023/01/18 11:53:46;;;;;;;12.77;7.17;;;3.80;86.50;;;;;;4832370;29;20141;-82
2023/01/18 11:56:33;;;;;;;10.43;6.88;;;3.90;86.70;;;;;;4833233;29;20049;-81
2023/01/18 11:59:01;;;;;;;10.63;6.67;;;3.90;86.60;;;;;;4826028;29;20054;-86
2023/01/18 12:01:26;;;;;;;9.27;6.78;;;3.90;86.40;;;;;;4826005;29;20429;-82
2023/01/18 12:03:55;;;;;;;11.43;6.85;;;4.00;86.50;;;;;;4828126;29;20058;-87
2023/01/18 12:06:43;;;;;;;13.00;6.72;;;4.10;86.40;;;;;;4826781;29;20652;-87
2023/01/18 12:09:20;;;;;;;9.00;6.30;;;4.00;85.40;;;;;;4832650;29;20168;-86
2023/01/18 12:11:57;;;;;;;10.80;6.20;;;4.00;85.60;;;;;;4828926;29;20314;-87
2023/01/18 12:14:32;;;;;;;11.18;6.43;;;4.00;85.30;;;;;;4832356;29;20242;-83
2023/01/18 12:17:07;;;;;;;12.00;6.85;;;4.00;85.10;;;;;;4822742;29;20054;-86
2023/01/18 12:19:38;;;;;;;10.77;6.60;;;4.10;86.30;;;;;;4809357;29;20407;-82
2023/01/18 12:22:25;;;;;;;11.75;6.90;;;4.10;86.10;;;;;;4831674;29;20162;-82
2023/01/18 12:25:09;;;;;;;11.80;6.63;;;4.20;85.30;;;;;;4824777;29;20084;-85
2023/01/18 12:27:52;;;;;;;15.48;6.15;;;4.30;85.90;;;;;;4828771;29;20508;-86
2023/01/18 12:30:26;;;;;;;9.80;5.78;;;4.30;85.70;;;;;;4823282;29;20534;-86
2023/01/18 12:33:11;;;;;;;11.30;6.18;;;4.30;84.80;;;;;;4827205;29;20050;-86
2023/01/18 12:35:56;;;;;;;10.32;5.28;;;4.40;84.40;;;;;;4827994;29;20062;-85
2023/01/18 12:38:26;;;;;;;8.13;4.85;;;4.50;85.00;;;;;;4831918;29;20081;-83
2023/01/18 12:40:58;;;;;;;10.10;5.13;;;4.50;83.60;;;;;;4831341;29;20075;-85
2023/01/18 12:43:48;;;;;;;10.33;4.77;;;4.50;82.70;;;;;;4826989;29;20049;-86
2023/01/18 12:46:48;;;;;;;10.75;5.07;;;4.50;84.00;;;;;;4819096;29;20065;-82
2023/01/18 12:49:17;;;;;;;9.90;5.18;;;4.40;82.20;;;;;;4831293;29;20133;-86
2023/01/18 12:51:46;;;;;;;8.48;5.20;;;4.50;83.30;;;;;;4831526;29;20046;-79
2023/01/18 12:54:17;;;;;;;;;;;4.50;83.90;;;;;;4847633;29;20042;-83
2023/01/18 12:56:47;;;;;;;10.13;5.75;;;4.50;82.40;;;;;;4830348;29;19932;-85
2023/01/18 12:59:48;;;;;;;10.20;5.28;;;4.50;84.30;;;;;;4828213;29;20081;-85
2023/01/18 13:02:38;;;;;;;9.35;5.28;;;4.50;83.90;;;;;;4821689;29;20057;-86
2023/01/18 13:05:49;;;;;;;11.10;5.60;;;4.50;83.60;;;;;;4824524;29;20090;-85
2023/01/18 13:08:51;;;;;;;10.23;5.70;;;4.50;83.00;;;;;;4823263;29;20054;-86
2023/01/18 13:11:40;;;;;;;8.02;5.63;;;4.50;83.40;;;;;;4793235;29;20046;-84
2023/01/18 13:14:47;;;;;;;12.38;5.95;;;4.50;83.50;;;;;;4803417;29;20096;-85
2023/01/18 13:17:26;;;;;;;10.70;5.63;;;4.40;83.20;;;;;;4829244;29;20601;-85
2023/01/18 13:20:04;;;;;;;11.77;5.80;;;4.40;84.60;;;;;;4809786;29;20384;-78
2023/01/18 13:23:11;;;;;;;10.27;6.13;;;4.40;84.90;;;;;;4807632;29;20514;-82
2023/01/18 13:25:52;;;;;;;10.82;6.20;;;4.40;84.30;;;;;;4800699;29;20295;-79
2023/01/18 13:28:20;;;;;;;9.13;5.68;;;4.40;84.00;;;;;;4828621;29;20486;-83